createdAt,value
2022-08-31T00:00:16.522Z,7.13
2022-08-31T00:03:24.003Z,6.78
2022-08-31T00:06:11.123Z,7.60
2022-08-31T00:08:58.678Z,6.70
2022-08-31T00:11:45.855Z,9.98
2022-08-31T00:14:33.137Z,6.88
2022-08-31T00:17:20.732Z,8.55
2022-08-31T00:20:23.320Z,6.93
2022-08-31T00:23:17.791Z,7.78
2022-08-31T00:26:05.126Z,6.25
2022-08-31T00:28:52.905Z,8.48
2022-08-31T00:31:40.307Z,6.82
2022-08-31T00:34:27.977Z,7.07
2022-08-31T00:37:15.348Z,6.28
2022-08-31T00:40:02.789Z,6.38
2022-08-31T00:42:50.439Z,6.15
2022-08-31T00:45:37.637Z,5.65
2022-08-31T00:48:25.049Z,7.90
2022-08-31T00:51:13.162Z,7.78
2022-08-31T00:54:08.225Z,8.30
2022-08-31T00:56:55.565Z,14.13
2022-08-31T00:59:44.434Z,7.93
2022-08-31T01:02:31.727Z,7.85
2022-08-31T01:05:20.947Z,7.35
2022-08-31T01:08:08.696Z,8.32
2022-08-31T01:10:55.899Z,5.95
2022-08-31T01:13:44.944Z,10.05
2022-08-31T01:16:40.586Z,8.57
2022-08-31T01:19:36.446Z,9.82
2022-08-31T01:22:44.792Z,7.10
2022-08-31T01:25:34.375Z,8.27
2022-08-31T01:28:21.727Z,5.88
2022-08-31T01:31:24.711Z,8.10
2022-08-31T01:34:13.443Z,6.75
2022-08-31T01:37:01.167Z,10.60
2022-08-31T01:39:50.239Z,7.65
2022-08-31T01:42:37.550Z,8.40
2022-08-31T01:45:24.793Z,8.32
2022-08-31T01:48:12.152Z,9.43
2022-08-31T01:50:59.368Z,7.07
2022-08-31T01:53:49.402Z,6.70
2022-08-31T01:56:44.046Z,8.32
2022-08-31T01:59:35.057Z,12.20
2022-08-31T02:02:35.897Z,7.30
2022-08-31T02:05:23.212Z,8.50
2022-08-31T02:08:11.324Z,6.20
2022-08-31T02:10:58.579Z,6.15
2022-08-31T02:13:46.248Z,7.05
2022-08-31T02:16:36.578Z,8.27
2022-08-31T02:19:23.881Z,10.85
2022-08-31T02:22:11.222Z,7.57
2022-08-31T02:24:58.512Z,6.68
2022-08-31T02:27:45.860Z,10.05
2022-08-31T02:30:33.237Z,7.15
2022-08-31T02:33:20.833Z,7.15
2022-08-31T02:36:08.385Z,6.95
2022-08-31T02:38:57.767Z,6.07
2022-08-31T02:41:45.017Z,7.85
2022-08-31T02:44:32.441Z,10.63
2022-08-31T02:47:19.729Z,7.38
2022-08-31T02:50:22.649Z,8.70
2022-08-31T02:53:11.995Z,8.20
2022-08-31T02:56:00.285Z,6.97
2022-08-31T02:58:54.428Z,8.57
2022-08-31T03:01:43.405Z,6.25
2022-08-31T03:04:30.896Z,9.55
2022-08-31T03:07:18.403Z,6.97
2022-08-31T03:10:08.491Z,10.35
2022-08-31T03:12:55.947Z,6.13
2022-08-31T03:15:44.681Z,7.95
2022-08-31T03:18:34.074Z,9.70
2022-08-31T03:21:21.520Z,7.50
2022-08-31T03:24:09.335Z,7.40
2022-08-31T03:26:57.297Z,6.88
2022-08-31T03:29:44.521Z,7.30
2022-08-31T03:32:39.046Z,8.82
2022-08-31T03:35:26.723Z,7.35
2022-08-31T03:38:16.001Z,8.82
2022-08-31T03:41:03.890Z,9.10
2022-08-31T03:43:53.313Z,7.18
2022-08-31T03:46:45.469Z,6.05
2022-08-31T03:49:33.361Z,10.45
2022-08-31T03:52:39.379Z,6.20
2022-08-31T03:55:34.960Z,8.10
2022-08-31T03:58:22.265Z,13.73
2022-08-31T04:01:12.933Z,7.30
2022-08-31T04:04:32.088Z,7.32
2022-08-31T04:07:55.126Z,6.93
2022-08-31T04:11:00.968Z,9.10
2022-08-31T04:14:08.479Z,7.65
2022-08-31T04:17:26.105Z,9.15
2022-08-31T04:20:24.508Z,7.35
2022-08-31T04:23:17.750Z,8.75
2022-08-31T04:26:18.195Z,7.03
2022-08-31T04:29:09.601Z,7.90
2022-08-31T04:31:59.553Z,7.07
2022-08-31T04:34:46.938Z,10.32
2022-08-31T04:37:34.376Z,10.13
2022-08-31T04:40:26.212Z,10.75
2022-08-31T04:43:14.553Z,7.75
2022-08-31T04:46:03.967Z,8.10
2022-08-31T04:48:51.511Z,8.98
2022-08-31T04:51:39.299Z,6.70
2022-08-31T04:54:26.595Z,8.75
2022-08-31T04:57:13.991Z,7.10
2022-08-31T05:00:01.655Z,7.97
2022-08-31T05:03:18.844Z,7.53
2022-08-31T05:06:13.950Z,6.45
2022-08-31T05:09:04.941Z,9.85
2022-08-31T05:14:40.196Z,7.47
2022-08-31T05:17:40.830Z,8.68
2022-08-31T05:20:28.082Z,8.45
2022-08-31T05:23:15.874Z,8.00
2022-08-31T05:26:06.453Z,9.00
2022-08-31T05:28:55.274Z,9.40
2022-08-31T05:34:36.491Z,9.10
2022-08-31T05:37:24.364Z,9.30
2022-08-31T05:40:13.000Z,8.18
2022-08-31T05:43:00.964Z,9.38
2022-08-31T05:45:48.590Z,5.88
2022-08-31T05:48:37.752Z,10.13
2022-08-31T05:51:36.088Z,7.82
2022-08-31T05:54:26.100Z,9.15
2022-08-31T05:57:14.836Z,6.95
2022-08-31T06:00:04.671Z,7.63
2022-08-31T06:02:59.986Z,8.20
2022-08-31T06:05:48.679Z,8.48
2022-08-31T06:08:37.292Z,7.68
2022-08-31T06:11:28.554Z,6.60
2022-08-31T06:14:16.396Z,7.28
2022-08-31T06:17:04.777Z,8.93
2022-08-31T06:19:52.287Z,10.10
2022-08-31T06:22:40.970Z,6.97
2022-08-31T06:25:32.572Z,8.05
2022-08-31T06:28:19.895Z,7.25
2022-08-31T06:31:12.150Z,8.38
2022-08-31T06:34:01.533Z,7.90
2022-08-31T06:37:18.255Z,6.90
2022-08-31T06:40:28.985Z,7.03
2022-08-31T06:43:34.542Z,7.93
2022-08-31T06:46:34.540Z,6.97
2022-08-31T06:49:36.638Z,6.97
2022-08-31T06:52:24.232Z,8.30
2022-08-31T06:55:30.068Z,7.97
2022-08-31T06:58:54.213Z,10.48
2022-08-31T07:02:11.515Z,9.48
2022-08-31T07:04:59.129Z,7.70
2022-08-31T07:07:46.456Z,9.68
2022-08-31T07:10:34.726Z,7.25
2022-08-31T07:13:22.009Z,8.10
2022-08-31T07:16:13.075Z,8.38
2022-08-31T07:21:54.681Z,6.78
2022-08-31T07:24:42.040Z,8.85
2022-08-31T07:27:30.225Z,8.38
2022-08-31T07:30:18.894Z,8.60
2022-08-31T07:33:07.167Z,8.32
2022-08-31T07:35:58.668Z,9.32
2022-08-31T07:39:11.884Z,8.20
2022-08-31T07:42:10.170Z,9.02
2022-08-31T07:44:59.908Z,9.65
2022-08-31T07:47:53.243Z,8.18
2022-08-31T07:50:46.659Z,9.93
2022-08-31T07:53:53.824Z,14.37
2022-08-31T07:56:52.299Z,9.18
2022-08-31T07:59:41.473Z,9.20
2022-08-31T08:02:28.980Z,9.75
2022-08-31T08:05:24.473Z,8.70
2022-08-31T08:08:38.692Z,11.18
2022-08-31T08:11:46.838Z,7.15
2022-08-31T08:15:13.983Z,8.95
2022-08-31T08:18:20.209Z,8.60
2022-08-31T08:21:11.417Z,11.75
2022-08-31T08:23:58.969Z,9.63
2022-08-31T08:27:13.615Z,10.07
2022-08-31T08:30:13.643Z,9.27
2022-08-31T08:33:03.234Z,7.65
2022-08-31T08:36:00.741Z,11.38
2022-08-31T08:38:51.181Z,11.43
2022-08-31T08:41:41.923Z,8.82
2022-08-31T08:44:33.172Z,8.52
2022-08-31T08:47:26.043Z,10.60
2022-08-31T08:50:23.441Z,8.32
2022-08-31T08:53:13.534Z,10.05
2022-08-31T08:56:32.417Z,11.68
2022-08-31T08:59:21.304Z,10.38
2022-08-31T09:02:23.845Z,7.32
2022-08-31T09:05:35.192Z,8.10
2022-08-31T09:09:03.798Z,8.43
2022-08-31T09:12:15.156Z,6.93
2022-08-31T09:15:36.287Z,8.73
2022-08-31T09:18:47.112Z,8.20
2022-08-31T09:21:45.845Z,8.35
2022-08-31T09:24:33.702Z,7.97
2022-08-31T09:27:59.958Z,11.80
2022-08-31T09:30:52.903Z,9.23
2022-08-31T09:33:49.260Z,8.70
2022-08-31T09:36:41.452Z,12.70
2022-08-31T09:39:33.038Z,8.30
2022-08-31T09:42:31.476Z,10.88
2022-08-31T09:45:30.012Z,10.38
2022-08-31T09:48:39.926Z,11.05
2022-08-31T09:51:36.470Z,10.13
2022-08-31T09:54:46.926Z,12.48
2022-08-31T09:57:53.231Z,11.38
2022-08-31T10:00:43.369Z,8.40
2022-08-31T10:03:31.095Z,11.93
2022-08-31T10:06:26.030Z,8.95
2022-08-31T10:09:23.733Z,9.48
2022-08-31T10:12:17.764Z,9.57
2022-08-31T10:15:20.231Z,8.13
2022-08-31T10:18:15.370Z,9.38
2022-08-31T10:21:21.469Z,10.48
2022-08-31T10:24:28.659Z,7.78
2022-08-31T10:27:32.242Z,8.30
2022-08-31T10:30:24.602Z,13.15
2022-08-31T10:33:46.878Z,6.65
2022-08-31T10:36:39.271Z,10.18
2022-08-31T10:39:47.844Z,8.68
2022-08-31T10:42:43.062Z,7.97
2022-08-31T10:45:43.738Z,8.35
2022-08-31T10:48:31.842Z,7.68
2022-08-31T10:51:38.706Z,14.55
2022-08-31T10:54:54.503Z,10.07
2022-08-31T10:57:51.117Z,10.18
2022-08-31T11:00:56.457Z,7.38
2022-08-31T11:04:10.469Z,10.23
2022-08-31T11:07:18.035Z,9.13
2022-08-31T11:10:36.667Z,9.30
2022-08-31T11:13:31.372Z,11.13
2022-08-31T11:16:50.590Z,8.75
2022-08-31T11:19:54.992Z,7.63
2022-08-31T11:23:08.079Z,7.35
2022-08-31T11:26:13.942Z,8.15
2022-08-31T11:29:32.827Z,9.40
2022-08-31T11:32:29.056Z,7.22
2022-08-31T11:36:04.065Z,7.63
2022-08-31T11:39:03.163Z,9.07
2022-08-31T11:41:51.942Z,7.05
2022-08-31T11:44:43.298Z,8.07
2022-08-31T11:47:30.779Z,6.93
2022-08-31T11:50:36.830Z,7.75
2022-08-31T11:53:36.753Z,7.65
2022-08-31T11:56:36.967Z,7.15
2022-08-31T11:59:34.129Z,6.90
2022-08-31T12:02:21.815Z,6.95
2022-08-31T12:05:09.874Z,5.75
2022-08-31T12:07:57.443Z,8.68
2022-08-31T12:11:04.550Z,7.78
2022-08-31T12:14:01.403Z,7.03
2022-08-31T12:16:57.165Z,5.07
2022-08-31T12:20:15.484Z,6.00
2022-08-31T12:23:39.570Z,5.93
2022-08-31T12:26:29.678Z,8.02
2022-08-31T12:29:20.542Z,7.55
2022-08-31T12:32:27.047Z,7.65
2022-08-31T12:35:17.222Z,6.05
2022-08-31T12:38:07.402Z,5.78
2022-08-31T12:40:56.733Z,8.57
2022-08-31T12:43:46.624Z,5.97
2022-08-31T12:47:13.271Z,6.85
2022-08-31T12:50:18.016Z,11.43
2022-08-31T12:53:26.062Z,7.57
2022-08-31T12:56:19.259Z,6.85
2022-08-31T12:59:59.373Z,6.22
2022-08-31T13:02:47.511Z,6.47
2022-08-31T13:05:38.119Z,7.32
2022-08-31T13:11:16.552Z,8.25
2022-08-31T13:14:24.454Z,7.40
2022-08-31T13:17:23.320Z,5.32
2022-08-31T13:20:18.550Z,6.43
2022-08-31T13:23:11.680Z,6.07
2022-08-31T13:26:09.809Z,6.10
2022-08-31T13:29:04.005Z,7.50
2022-08-31T13:31:52.645Z,8.02
2022-08-31T13:34:42.157Z,8.02
2022-08-31T13:37:33.519Z,10.40
2022-08-31T13:40:24.792Z,5.38
2022-08-31T13:43:27.455Z,7.38
2022-08-31T13:46:21.866Z,6.88
2022-08-31T13:49:32.383Z,5.25
2022-08-31T13:52:24.165Z,5.82
2022-08-31T13:55:13.151Z,5.60
2022-08-31T13:58:07.272Z,5.32
2022-08-31T14:01:18.810Z,5.70
2022-08-31T14:04:06.099Z,7.38
2022-08-31T14:06:53.473Z,6.57
2022-08-31T14:09:45.567Z,8.07
2022-08-31T14:12:52.742Z,6.75
2022-08-31T14:15:48.963Z,5.38
2022-08-31T14:18:42.945Z,8.52
2022-08-31T14:21:35.152Z,7.80
2022-08-31T14:24:22.377Z,4.70
2022-08-31T14:27:11.094Z,6.28
2022-08-31T14:29:58.391Z,5.25
2022-08-31T14:32:45.848Z,4.32
2022-08-31T14:35:33.024Z,5.32
2022-08-31T14:38:20.466Z,5.18
2022-08-31T14:41:11.377Z,6.38
2022-08-31T14:44:07.057Z,6.93
2022-08-31T14:46:54.500Z,4.55
2022-08-31T14:49:44.153Z,4.10
2022-08-31T14:52:36.291Z,4.43
2022-08-31T14:55:25.294Z,11.10
2022-08-31T14:58:14.564Z,4.07
2022-08-31T15:01:06.190Z,4.43
2022-08-31T15:03:53.939Z,4.15
2022-08-31T15:06:42.034Z,4.55
2022-08-31T15:09:29.313Z,4.68
2022-08-31T15:12:16.647Z,4.50
2022-08-31T15:15:05.364Z,8.98
2022-08-31T15:17:52.838Z,3.92
2022-08-31T15:20:42.000Z,3.60
2022-08-31T15:23:30.278Z,6.10
2022-08-31T15:26:21.487Z,5.70
2022-08-31T15:29:13.770Z,4.10
2022-08-31T15:32:04.058Z,5.28
2022-08-31T15:34:57.939Z,4.97
2022-08-31T15:37:53.053Z,5.13
2022-08-31T15:40:40.596Z,7.30
2022-08-31T15:43:27.830Z,4.32
2022-08-31T15:46:15.066Z,11.95
2022-08-31T15:49:02.389Z,3.88
2022-08-31T15:51:50.296Z,3.60
2022-08-31T15:54:40.486Z,3.53
2022-08-31T15:57:27.983Z,4.03
2022-08-31T16:00:16.810Z,4.93
2022-08-31T16:03:05.133Z,5.72
2022-08-31T16:05:54.122Z,6.32
2022-08-31T16:08:42.377Z,4.95
2022-08-31T16:11:33.465Z,4.22
2022-08-31T16:14:24.788Z,5.72
2022-08-31T16:17:19.442Z,6.75
2022-08-31T16:20:08.662Z,4.35
2022-08-31T16:22:58.757Z,5.15
2022-08-31T16:25:48.499Z,4.35
2022-08-31T16:28:36.302Z,4.05
2022-08-31T16:31:24.681Z,4.43
2022-08-31T16:34:12.808Z,4.30
2022-08-31T16:37:07.706Z,6.93
2022-08-31T16:39:55.137Z,3.78
2022-08-31T16:42:42.427Z,3.45
2022-08-31T16:45:29.704Z,7.72
2022-08-31T16:48:35.660Z,5.10
2022-08-31T16:51:23.947Z,4.82
2022-08-31T16:54:11.322Z,6.80
2022-08-31T16:56:58.772Z,4.32
2022-08-31T16:59:46.542Z,5.05
2022-08-31T17:02:34.080Z,6.68
2022-08-31T17:05:21.467Z,4.38
2022-08-31T17:08:14.625Z,6.97
2022-08-31T17:11:32.151Z,4.72
2022-08-31T17:14:32.258Z,8.95
2022-08-31T17:17:26.656Z,4.63
2022-08-31T17:20:16.450Z,6.07
2022-08-31T17:23:03.772Z,5.25
2022-08-31T17:25:51.214Z,5.30
2022-08-31T17:28:39.543Z,5.10
2022-08-31T17:31:28.387Z,4.45
2022-08-31T17:34:19.143Z,4.82
2022-08-31T17:37:13.110Z,5.55
2022-08-31T17:40:00.425Z,7.03
2022-08-31T17:42:49.730Z,7.35
2022-08-31T17:45:37.020Z,5.30
2022-08-31T17:48:25.007Z,8.70
2022-08-31T17:51:27.184Z,5.57
2022-08-31T17:54:18.575Z,4.75
2022-08-31T17:57:09.945Z,5.00
2022-08-31T17:59:57.315Z,7.25
2022-08-31T18:02:44.658Z,7.38
2022-08-31T18:05:33.449Z,4.93
2022-08-31T18:08:26.362Z,5.78
2022-08-31T18:11:13.576Z,5.50
2022-08-31T18:14:00.931Z,6.93
2022-08-31T18:16:50.533Z,8.30
2022-08-31T18:19:38.150Z,6.38
2022-08-31T18:22:26.091Z,7.28
2022-08-31T18:25:13.585Z,5.35
2022-08-31T18:28:03.362Z,7.75
2022-08-31T18:30:51.595Z,4.72
2022-08-31T18:33:39.213Z,7.72
2022-08-31T18:36:27.247Z,11.07
2022-08-31T18:39:41.111Z,5.35
2022-08-31T18:42:58.849Z,5.88
2022-08-31T18:45:50.296Z,7.63
2022-08-31T18:48:39.342Z,6.43
2022-08-31T18:51:26.894Z,6.30
2022-08-31T18:54:15.999Z,6.38
2022-08-31T18:57:03.262Z,7.35
2022-08-31T18:59:50.942Z,7.13
2022-08-31T19:02:40.416Z,7.10
2022-08-31T19:05:28.525Z,8.52
2022-08-31T19:08:15.639Z,7.38
2022-08-31T19:11:07.012Z,7.93
2022-08-31T19:13:54.561Z,7.00
2022-08-31T19:16:45.121Z,5.82
2022-08-31T19:19:42.466Z,8.95
2022-08-31T19:22:29.768Z,11.40
2022-08-31T19:25:18.422Z,8.40
2022-08-31T19:28:07.752Z,6.82
2022-08-31T19:30:55.140Z,7.93
2022-08-31T19:33:42.784Z,6.72
2022-08-31T19:36:35.013Z,8.73
2022-08-31T19:39:24.449Z,6.07
2022-08-31T19:42:13.331Z,6.65
2022-08-31T19:48:07.781Z,6.88
2022-08-31T19:50:55.253Z,6.53
2022-08-31T19:53:45.450Z,8.00
2022-08-31T19:56:32.637Z,8.52
2022-08-31T19:59:21.101Z,7.88
2022-08-31T20:02:08.821Z,8.40
2022-08-31T20:04:56.356Z,6.80
2022-08-31T20:07:45.272Z,8.98
2022-08-31T20:10:33.035Z,6.38
2022-08-31T20:13:24.282Z,6.93
2022-08-31T20:16:12.322Z,6.22
2022-08-31T20:19:00.430Z,6.97
2022-08-31T20:21:53.851Z,6.22
2022-08-31T20:24:44.897Z,7.60
2022-08-31T20:27:35.762Z,6.82
2022-08-31T20:30:24.494Z,7.47
2022-08-31T20:33:12.277Z,7.18
2022-08-31T20:35:59.531Z,9.05
2022-08-31T20:38:56.800Z,8.68
2022-08-31T20:41:49.081Z,6.80
2022-08-31T20:44:37.695Z,8.02
2022-08-31T20:47:43.717Z,11.00
2022-08-31T20:50:31.679Z,8.23
2022-08-31T20:53:38.819Z,8.43
2022-08-31T20:56:27.464Z,9.20
2022-08-31T20:59:14.623Z,7.78
2022-08-31T21:02:05.740Z,8.77
2022-08-31T21:04:53.715Z,10.45
2022-08-31T21:07:41.010Z,9.73
2022-08-31T21:10:37.903Z,7.30
2022-08-31T21:13:28.375Z,7.20
2022-08-31T21:16:19.447Z,8.02
2022-08-31T21:19:17.000Z,8.70
2022-08-31T21:22:06.851Z,8.88
2022-08-31T21:24:59.755Z,11.10
2022-08-31T21:27:47.039Z,7.60
2022-08-31T21:30:34.204Z,7.15
2022-08-31T21:33:21.515Z,9.75
2022-08-31T21:36:12.215Z,9.15
2022-08-31T21:38:59.443Z,8.43
2022-08-31T21:41:47.717Z,8.70
2022-08-31T21:44:35.955Z,8.57
2022-08-31T21:47:23.271Z,10.23
2022-08-31T21:50:10.460Z,7.43
2022-08-31T21:53:00.454Z,8.48
2022-08-31T21:55:47.806Z,8.63
2022-08-31T21:58:34.995Z,8.82
2022-08-31T22:01:23.886Z,9.00
2022-08-31T22:04:13.810Z,8.57
2022-08-31T22:07:01.746Z,8.30
2022-08-31T22:09:49.195Z,11.50
2022-08-31T22:12:36.442Z,10.15
2022-08-31T22:15:25.291Z,10.30
2022-08-31T22:18:58.110Z,10.10
2022-08-31T22:21:24.134Z,11.00
2022-08-31T22:24:27.034Z,10.60
2022-08-31T22:27:15.281Z,15.27
2022-08-31T22:30:04.584Z,11.20
2022-08-31T22:32:52.259Z,12.80
2022-08-31T22:35:39.485Z,11.85
2022-08-31T22:38:26.730Z,14.00
2022-08-31T22:41:16.775Z,13.27
2022-08-31T22:44:09.840Z,14.60
2022-08-31T22:46:57.151Z,13.02
2022-08-31T22:49:44.325Z,13.20
2022-08-31T22:52:32.511Z,16.17
2022-08-31T22:55:19.820Z,13.10
2022-08-31T22:58:07.044Z,13.52
2022-08-31T23:00:54.307Z,13.10
2022-08-31T23:03:42.806Z,13.40
2022-08-31T23:06:30.475Z,12.55
2022-08-31T23:09:21.191Z,15.02
2022-08-31T23:12:08.852Z,14.80
2022-08-31T23:14:56.493Z,11.95
2022-08-31T23:17:48.759Z,16.67
2022-08-31T23:20:37.780Z,13.52
2022-08-31T23:23:25.553Z,15.48
2022-08-31T23:26:13.658Z,14.30
2022-08-31T23:29:05.493Z,14.65
2022-08-31T23:31:53.286Z,14.18
2022-08-31T23:34:41.742Z,14.35
2022-08-31T23:37:30.592Z,16.33
2022-08-31T23:40:18.006Z,15.43
2022-08-31T23:43:07.931Z,17.90
2022-08-31T23:46:02.107Z,16.70
2022-08-31T23:51:40.413Z,16.50
2022-08-31T23:54:29.570Z,19.00
2022-08-31T23:57:31.398Z,19.13
